Time;durP1;ratioP1;P1;durP2;ratioP2;P2;SDS_P1;SDS_P2;PMS_P1;PMS_P2;Temp;Humidity;BMP_temperature;BMP_pressure;BME280_temperature;BME280_humidity;BME280_pressure;Samples;Min_cycle;Max_cycle;Signal;HPM_P1;HPM_P2
2022/04/15 00:01:23;;;;;;;20.70;19.80;;;14.30;50.70;;;;;;6188655;23;20391;-79
2022/04/15 00:03:50;;;;;;;21.30;20.40;;;14.30;50.40;;;;;;6188939;23;20164;-79
2022/04/15 00:06:16;;;;;;;21.20;20.30;;;14.30;50.30;;;;;;6188698;23;20406;-79
2022/04/15 00:08:42;;;;;;;20.20;19.37;;;14.30;50.60;;;;;;6189206;23;20441;-79
2022/04/15 00:11:09;;;;;;;20.50;19.70;;;14.30;51.00;;;;;;6188581;23;20395;-78
2022/04/15 00:13:35;;;;;;;21.10;20.10;;;14.30;51.60;;;;;;6188067;23;20279;-78
2022/04/15 00:16:03;;;;;;;22.30;20.80;;;14.30;51.20;;;;;;6188276;23;20427;-79
2022/04/15 00:18:29;;;;;;;21.47;20.47;;;14.20;50.20;;;;;;6188103;23;20755;-79
2022/04/15 00:20:55;;;;;;;21.27;20.27;;;14.30;51.30;;;;;;6189116;23;20449;-78
2022/04/15 00:23:22;;;;;;;20.60;19.80;;;14.30;51.10;;;;;;6188663;23;20477;-78
2022/04/15 00:25:49;;;;;;;21.03;20.20;;;14.30;50.70;;;;;;6188641;23;20414;-79
2022/04/15 00:28:15;;;;;;;20.47;19.57;;;14.30;50.30;;;;;;6188468;23;20474;-79
2022/04/15 00:30:41;;;;;;;19.27;18.47;;;14.40;50.00;;;;;;6188809;23;20426;-79
2022/04/15 00:33:06;;;;;;;20.53;19.63;;;14.40;49.60;;;;;;6188677;23;20476;-79
2022/04/15 00:35:32;;;;;;;19.73;19.03;;;14.40;49.30;;;;;;6188210;23;20521;-79
2022/04/15 00:37:58;;;;;;;20.63;19.63;;;14.30;49.60;;;;;;6188402;23;20156;-79
2022/04/15 00:40:24;;;;;;;19.70;18.90;;;14.30;49.70;;;;;;6188231;23;20152;-78
2022/04/15 00:42:49;;;;;;;20.07;19.20;;;14.30;50.00;;;;;;6188260;23;20597;-78
2022/04/15 00:45:15;;;;;;;20.37;19.43;;;14.20;50.20;;;;;;6188649;23;20191;-79
2022/04/15 00:47:48;;;;;;;20.77;19.87;;;14.30;50.30;;;;;;6188706;23;20170;-78
2022/04/15 00:50:14;;;;;;;21.80;20.83;;;14.20;50.50;;;;;;6213297;23;20163;-77
2022/04/15 00:52:44;;;;;;;20.60;19.80;;;14.20;50.90;;;;;;6187957;23;20844;-79
2022/04/15 00:55:11;;;;;;;20.17;19.30;;;14.20;50.80;;;;;;6188119;23;20423;-78
2022/04/15 00:57:43;;;;;;;22.27;21.17;;;14.20;50.80;;;;;;6188527;23;20382;-79
2022/04/15 01:00:11;;;;;;;20.47;19.57;;;14.20;50.50;;;;;;6188276;23;20465;-79
2022/04/15 01:02:37;;;;;;;21.10;20.00;;;14.20;50.50;;;;;;6187994;23;20418;-79
2022/04/15 01:05:06;;;;;;;20.07;19.30;;;14.20;50.60;;;;;;6187841;23;20414;-79
2022/04/15 01:07:52;;;;;;;20.27;19.40;;;14.20;50.80;;;;;;6187488;23;20418;-79
2022/04/15 01:10:19;;;;;;;21.30;20.20;;;14.20;50.90;;;;;;6188298;23;20474;-79
2022/04/15 01:12:48;;;;;;;20.77;19.87;;;14.20;51.10;;;;;;6188040;23;20417;-79
2022/04/15 01:15:15;;;;;;;20.40;19.37;;;14.20;51.30;;;;;;6188541;23;20431;-79
2022/04/15 01:17:41;;;;;;;20.40;19.50;;;14.20;51.40;;;;;;6189572;23;20394;-79
2022/04/15 01:20:10;;;;;;;20.57;19.77;;;14.10;51.90;;;;;;6189809;23;20383;-80
2022/04/15 01:22:40;;;;;;;20.10;19.20;;;14.20;51.70;;;;;;6189638;23;20466;-80
2022/04/15 01:25:07;;;;;;;20.03;19.03;;;14.20;51.60;;;;;;6189098;23;20391;-83
2022/04/15 01:27:38;;;;;;;20.13;19.40;;;14.10;51.60;;;;;;6188061;23;20387;-82
2022/04/15 01:30:12;;;;;;;21.10;20.20;;;14.10;52.00;;;;;;6187784;23;20498;-80
2022/04/15 01:32:37;;;;;;;20.30;19.50;;;14.10;52.10;;;;;;6187695;23;20386;-80
2022/04/15 01:35:06;;;;;;;20.57;19.70;;;14.10;52.20;;;;;;6187466;23;20387;-78
2022/04/15 01:37:31;;;;;;;20.10;18.63;;;14.10;52.40;;;;;;6188250;23;20162;-79
2022/04/15 01:39:57;;;;;;;20.73;19.83;;;14.10;52.70;;;;;;6187540;23;20383;-79
2022/04/15 01:42:23;;;;;;;21.20;19.70;;;14.10;52.50;;;;;;6187656;23;20155;-78
2022/04/15 01:44:49;;;;;;;21.57;20.37;;;14.10;52.30;;;;;;6187123;23;20465;-78
2022/04/15 01:47:17;;;;;;;21.13;20.13;;;14.10;52.30;;;;;;6212527;23;20180;-79
2022/04/15 01:49:43;;;;;;;20.53;19.73;;;14.20;51.90;;;;;;6186803;23;20390;-79
2022/04/15 01:52:09;;;;;;;21.83;20.90;;;14.20;52.00;;;;;;6187615;23;20395;-80
2022/04/15 01:54:35;;;;;;;20.73;19.73;;;14.20;51.90;;;;;;6187051;23;20386;-78
2022/04/15 01:57:01;;;;;;;21.23;20.43;;;14.10;52.20;;;;;;6186867;23;20520;-79
2022/04/15 01:59:27;;;;;;;21.97;21.07;;;14.10;51.90;;;;;;6213833;23;20167;-79
2022/04/15 02:01:54;;;;;;;22.57;21.17;;;14.10;52.10;;;;;;6187994;23;20893;-77
2022/04/15 02:04:25;;;;;;;21.17;20.27;;;14.10;52.30;;;;;;6186538;23;20163;-79
2022/04/15 02:06:50;;;;;;;21.77;20.87;;;14.10;52.40;;;;;;6187508;23;20376;-79
2022/04/15 02:09:16;;;;;;;21.17;20.17;;;14.10;52.50;;;;;;6187702;23;20884;-79
2022/04/15 02:11:42;;;;;;;20.30;19.40;;;14.00;52.90;;;;;;6187457;23;20480;-79
2022/04/15 02:14:08;;;;;;;21.43;20.53;;;14.00;53.40;;;;;;6213990;23;20459;-78
2022/04/15 02:16:34;;;;;;;20.80;19.90;;;13.90;53.10;;;;;;6187192;23;20423;-78
2022/04/15 02:19:00;;;;;;;20.33;19.53;;;13.90;53.50;;;;;;6186820;23;20380;-79
2022/04/15 02:21:25;;;;;;;20.63;19.83;;;13.90;53.70;;;;;;6187019;23;20423;-79
2022/04/15 02:23:51;;;;;;;21.90;20.90;;;13.90;54.00;;;;;;6186230;23;20152;-80
2022/04/15 02:26:17;;;;;;;21.40;20.50;;;13.80;53.80;;;;;;6186171;23;20156;-80
2022/04/15 02:28:42;;;;;;;22.53;21.43;;;13.90;53.80;;;;;;6185963;23;20381;-80
2022/04/15 02:31:08;;;;;;;22.40;21.30;;;13.90;54.00;;;;;;6186322;23;20564;-79
2022/04/15 02:33:34;;;;;;;21.33;20.40;;;13.90;53.80;;;;;;6185947;23;20164;-79
2022/04/15 02:35:59;;;;;;;21.77;20.90;;;13.80;54.30;;;;;;6186720;23;20430;-79
2022/04/15 02:38:25;;;;;;;22.27;21.00;;;13.80;54.70;;;;;;6186707;23;20160;-79
2022/04/15 02:40:51;;;;;;;21.10;20.30;;;13.80;54.70;;;;;;6187080;23;20479;-80
2022/04/15 02:43:17;;;;;;;22.53;21.60;;;13.80;54.00;;;;;;6187253;23;20175;-79
2022/04/15 02:45:43;;;;;;;22.93;21.60;;;13.80;54.70;;;;;;6213998;23;20852;-79
2022/04/15 02:48:09;;;;;;;22.40;21.40;;;13.80;54.00;;;;;;6186941;23;20391;-79
2022/04/15 02:50:34;;;;;;;22.60;21.60;;;13.80;54.30;;;;;;6187359;23;20206;-79
2022/04/15 02:53:01;;;;;;;21.60;20.70;;;13.80;53.80;;;;;;6187066;23;20493;-79
2022/04/15 02:55:27;;;;;;;21.43;20.50;;;13.80;54.00;;;;;;6185992;23;20364;-78
2022/04/15 02:57:52;;;;;;;21.93;20.93;;;13.80;55.10;;;;;;6186642;23;20406;-79
2022/04/15 03:00:19;;;;;;;22.30;20.80;;;13.80;54.50;;;;;;6187508;23;20171;-79
2022/04/15 03:02:44;;;;;;;23.63;22.43;;;13.70;54.60;;;;;;6187418;23;20389;-80
2022/04/15 03:05:10;;;;;;;23.90;22.80;;;13.70;54.20;;;;;;6186978;23;20423;-79
2022/04/15 03:07:37;;;;;;;22.17;21.27;;;13.70;54.50;;;;;;6213586;23;20595;-79
2022/04/15 03:10:04;;;;;;;22.30;21.20;;;13.70;54.60;;;;;;6186927;23;20440;-79
2022/04/15 03:12:34;;;;;;;22.20;21.20;;;13.60;54.50;;;;;;6186737;23;20404;-79
2022/04/15 03:15:00;;;;;;;21.33;20.43;;;13.60;55.00;;;;;;6185953;23;20395;-79
2022/04/15 03:17:26;;;;;;;22.30;21.30;;;13.50;55.60;;;;;;6187175;23;20379;-79
2022/04/15 03:19:52;;;;;;;21.87;20.90;;;13.50;55.20;;;;;;6187050;23;20390;-79
2022/04/15 03:22:18;;;;;;;22.50;21.47;;;13.50;55.10;;;;;;6186753;23;20239;-79
2022/04/15 03:24:44;;;;;;;22.90;21.90;;;13.50;54.90;;;;;;6187243;23;20222;-80
2022/04/15 03:27:10;;;;;;;23.67;22.37;;;13.40;55.00;;;;;;6186979;23;20391;-79
2022/04/15 03:29:36;;;;;;;22.77;21.73;;;13.40;55.70;;;;;;6187138;23;20171;-79
2022/04/15 03:32:02;;;;;;;22.63;21.67;;;13.50;55.90;;;;;;6187280;23;20390;-80
2022/04/15 03:34:27;;;;;;;22.80;21.70;;;13.50;55.70;;;;;;6187472;23;20163;-79
2022/04/15 03:36:53;;;;;;;22.90;22.00;;;13.50;56.10;;;;;;6187371;23;20437;-78
2022/04/15 03:39:18;;;;;;;23.60;22.53;;;13.50;55.70;;;;;;6187256;23;20156;-78
2022/04/15 03:41:44;;;;;;;24.00;22.80;;;13.50;55.70;;;;;;6187386;23;20156;-79
2022/04/15 03:44:10;;;;;;;23.10;22.00;;;13.50;55.80;;;;;;6187232;23;20164;-79
2022/04/15 03:46:38;;;;;;;22.97;21.87;;;13.50;56.20;;;;;;6214034;23;20219;-79
2022/04/15 03:49:04;;;;;;;21.87;20.87;;;13.40;56.00;;;;;;6187582;23;20421;-79
2022/04/15 03:51:30;;;;;;;23.03;21.93;;;13.30;56.50;;;;;;6187265;23;20525;-79
2022/04/15 03:53:56;;;;;;;22.80;21.90;;;13.30;56.70;;;;;;6189256;23;20402;-79
2022/04/15 03:56:21;;;;;;;21.57;20.70;;;13.40;56.20;;;;;;6216028;23;20632;-79
2022/04/15 03:58:47;;;;;;;22.67;21.57;;;13.40;56.50;;;;;;6189317;23;20620;-79
2022/04/15 04:01:13;;;;;;;22.97;21.87;;;13.30;56.00;;;;;;6189398;23;20160;-79
2022/04/15 04:03:38;;;;;;;22.70;21.80;;;13.30;55.90;;;;;;6188871;23;20156;-79
2022/04/15 04:06:04;;;;;;;23.07;22.17;;;13.30;56.00;;;;;;6189294;23;20198;-79
2022/04/15 04:08:30;;;;;;;23.83;22.67;;;13.30;56.50;;;;;;6189634;23;20556;-79
2022/04/15 04:10:55;;;;;;;21.50;20.60;;;13.30;56.50;;;;;;6189149;23;20254;-79
2022/04/15 04:13:21;;;;;;;23.53;22.53;;;13.20;56.80;;;;;;6189008;23;20238;-79
2022/04/15 04:15:48;;;;;;;21.00;20.10;;;13.20;57.20;;;;;;6188880;23;20188;-78
2022/04/15 04:18:14;;;;;;;22.53;21.43;;;13.20;57.60;;;;;;6188901;23;20879;-78
2022/04/15 04:20:41;;;;;;;22.33;21.33;;;13.10;57.80;;;;;;6189377;23;20727;-78
2022/04/15 04:23:07;;;;;;;21.97;21.07;;;13.10;57.50;;;;;;6189243;23;20390;-78
2022/04/15 04:25:33;;;;;;;22.70;21.50;;;13.20;57.30;;;;;;6217477;23;20371;-78
2022/04/15 04:27:58;;;;;;;23.10;21.07;;;13.10;57.30;;;;;;6188759;23;20398;-78
2022/04/15 04:30:24;;;;;;;21.87;20.87;;;13.10;57.50;;;;;;6189015;23;20167;-78
2022/04/15 04:32:49;;;;;;;21.77;20.80;;;13.00;57.90;;;;;;6188564;23;20156;-78
2022/04/15 04:35:18;;;;;;;23.10;21.77;;;13.00;58.20;;;;;;6188675;23;20674;-79
2022/04/15 04:37:44;;;;;;;21.20;20.30;;;13.00;58.30;;;;;;6189201;23;20151;-80
2022/04/15 04:40:10;;;;;;;23.80;22.40;;;13.00;58.10;;;;;;6189290;23;20478;-80
2022/04/15 04:42:36;;;;;;;21.73;20.83;;;13.00;58.40;;;;;;6189123;23;20419;-80
2022/04/15 04:45:02;;;;;;;21.53;20.50;;;13.00;58.70;;;;;;6189032;23;20913;-79
2022/04/15 04:47:29;;;;;;;21.40;20.40;;;12.90;58.70;;;;;;6189345;23;20382;-80
2022/04/15 04:49:55;;;;;;;22.10;20.87;;;12.90;58.70;;;;;;6189086;23;20388;-78
2022/04/15 04:52:23;;;;;;;22.60;21.17;;;13.00;58.30;;;;;;6188361;23;20383;-78
2022/04/15 04:54:49;;;;;;;21.43;20.43;;;13.00;58.00;;;;;;6188397;23;20472;-78
2022/04/15 04:57:15;;;;;;;20.87;19.97;;;13.00;58.00;;;;;;6189007;23;20755;-78
2022/04/15 04:59:40;;;;;;;21.40;20.30;;;12.90;58.60;;;;;;6188965;23;20410;-78
2022/04/15 05:02:08;;;;;;;20.90;20.00;;;13.00;58.50;;;;;;6188647;23;20159;-78
2022/04/15 05:04:33;;;;;;;22.57;21.20;;;13.00;58.30;;;;;;6188490;23;20239;-78
2022/04/15 05:06:59;;;;;;;21.30;20.30;;;12.90;58.30;;;;;;6189034;23;20414;-78
2022/04/15 05:09:25;;;;;;;22.13;21.10;;;12.90;58.90;;;;;;6188918;23;20198;-78
2022/04/15 05:11:51;;;;;;;21.93;20.80;;;12.90;59.20;;;;;;6188058;23;20198;-78
2022/04/15 05:14:17;;;;;;;21.77;20.77;;;12.90;59.30;;;;;;6187731;23;20214;-78
2022/04/15 05:16:43;;;;;;;21.87;20.80;;;12.90;59.00;;;;;;6188673;23;20484;-78
2022/04/15 05:19:09;;;;;;;21.43;20.40;;;12.90;58.80;;;;;;6188749;23;20837;-80
2022/04/15 05:21:35;;;;;;;22.23;21.23;;;13.00;59.10;;;;;;6184716;23;20164;-78
2022/04/15 05:24:01;;;;;;;23.07;21.90;;;13.00;59.10;;;;;;6187411;23;20180;-78
2022/04/15 05:26:29;;;;;;;21.53;20.63;;;13.00;59.10;;;;;;6184571;23;20148;-78
2022/04/15 05:28:55;;;;;;;22.57;21.47;;;13.00;59.30;;;;;;6185108;23;20406;-78
2022/04/15 05:31:21;;;;;;;22.77;21.57;;;13.00;59.60;;;;;;6161442;23;20435;-78
2022/04/15 05:33:47;;;;;;;22.90;21.90;;;13.00;59.50;;;;;;6186100;23;20410;-78
2022/04/15 05:36:12;;;;;;;22.47;21.37;;;13.10;59.30;;;;;;6212262;23;20175;-79
2022/04/15 05:38:38;;;;;;;22.90;21.70;;;13.10;58.90;;;;;;6186157;23;20167;-79
2022/04/15 05:41:06;;;;;;;24.60;23.30;;;13.10;59.20;;;;;;6212493;23;20144;-78
2022/04/15 05:43:32;;;;;;;23.10;21.90;;;13.10;59.30;;;;;;6186273;23;20581;-79
2022/04/15 05:45:57;;;;;;;23.40;22.30;;;13.20;59.10;;;;;;6187453;23;20401;-79
2022/04/15 05:48:23;;;;;;;22.43;21.40;;;13.10;58.50;;;;;;6188886;23;20182;-78
2022/04/15 05:50:48;;;;;;;22.93;21.73;;;13.20;58.80;;;;;;6188503;23;20164;-79
2022/04/15 05:53:14;;;;;;;23.30;22.20;;;13.20;58.90;;;;;;6188964;23;20475;-83
2022/04/15 05:55:40;;;;;;;21.93;20.67;;;13.30;59.10;;;;;;6189276;23;20184;-79
2022/04/15 05:58:07;;;;;;;22.57;21.47;;;13.30;58.70;;;;;;6188936;23;20159;-82
2022/04/15 06:00:33;;;;;;;23.10;22.00;;;13.30;58.70;;;;;;6188121;23;20518;-78
2022/04/15 06:02:59;;;;;;;23.87;22.57;;;13.30;58.50;;;;;;6186820;23;20389;-79
2022/04/15 06:05:25;;;;;;;24.50;23.30;;;13.40;57.80;;;;;;6186445;23;20160;-78
2022/04/15 06:07:52;;;;;;;23.13;22.03;;;13.40;56.80;;;;;;6187103;23;20160;-78
2022/04/15 06:10:18;;;;;;;24.07;22.97;;;13.50;58.30;;;;;;6187338;23;20853;-78
2022/04/15 06:15:30;;;;;;;23.17;21.97;;;13.50;58.30;;;;;;6213598;23;20210;-80
2022/04/15 06:17:57;;;;;;;23.40;22.30;;;13.60;57.60;;;;;;6187117;23;20422;-79
2022/04/15 06:20:23;;;;;;;22.70;21.63;;;13.60;57.60;;;;;;6186949;23;20466;-79
2022/04/15 06:22:49;;;;;;;26.27;24.90;;;13.70;57.40;;;;;;6187087;23;20386;-79
2022/04/15 06:25:15;;;;;;;23.00;21.93;;;13.70;57.40;;;;;;6186837;23;20399;-79
2022/04/15 06:27:40;;;;;;;24.13;23.03;;;13.80;58.10;;;;;;6187219;23;20485;-78
2022/04/15 06:30:08;;;;;;;24.87;23.47;;;13.80;56.40;;;;;;6186887;23;20164;-78
2022/04/15 06:32:34;;;;;;;25.47;24.27;;;13.80;56.00;;;;;;6187027;23;20220;-79
2022/04/15 06:35:00;;;;;;;24.02;22.83;;;13.90;55.70;;;;;;6186325;23;20393;-77
2022/04/15 06:37:26;;;;;;;25.50;24.13;;;13.90;57.20;;;;;;6186525;23;20494;-79
2022/04/15 06:39:51;;;;;;;25.30;23.60;;;14.00;57.60;;;;;;6186702;23;20156;-79
2022/04/15 06:42:21;;;;;;;25.03;23.53;;;14.00;56.00;;;;;;6187072;23;20164;-78
2022/04/15 06:44:48;;;;;;;27.30;25.80;;;14.00;55.50;;;;;;6186804;23;20160;-78
2022/04/15 06:47:13;;;;;;;28.20;26.43;;;14.10;56.30;;;;;;6186645;23;20395;-78
2022/04/15 06:49:39;;;;;;;28.13;26.40;;;14.20;55.70;;;;;;6187009;23;20391;-79
2022/04/15 06:52:05;;;;;;;27.47;25.47;;;14.30;54.80;;;;;;6185733;23;20589;-79
2022/04/15 06:54:31;;;;;;;28.90;26.80;;;14.40;54.20;;;;;;6185386;23;20156;-79
2022/04/15 06:56:57;;;;;;;28.77;26.90;;;14.40;54.10;;;;;;6186603;23;20489;-79
2022/04/15 06:59:22;;;;;;;28.03;26.23;;;14.40;53.80;;;;;;6185277;23;20735;-80
2022/04/15 07:01:48;;;;;;;27.80;26.03;;;14.40;54.20;;;;;;6185570;23;20162;-79
2022/04/15 07:04:14;;;;;;;26.40;24.70;;;14.40;52.90;;;;;;6185077;23;20156;-79
2022/04/15 07:06:39;;;;;;;29.40;27.50;;;14.40;52.40;;;;;;6185484;23;20210;-77
2022/04/15 07:09:05;;;;;;;31.57;29.50;;;14.60;52.10;;;;;;6210376;23;20255;-77
2022/04/15 07:11:30;;;;;;;28.73;26.60;;;14.70;51.50;;;;;;6185499;23;20160;-76
2022/04/15 07:13:56;;;;;;;26.63;25.13;;;14.80;52.50;;;;;;6185451;23;20588;-81
2022/04/15 07:16:22;;;;;;;27.10;25.50;;;15.00;51.90;;;;;;6211026;23;20594;-80
2022/04/15 07:18:47;;;;;;;30.10;28.00;;;15.10;51.50;;;;;;6182391;23;20250;-81
2022/04/15 07:21:13;;;;;;;29.40;27.50;;;15.30;49.40;;;;;;6182609;23;20188;-82
2022/04/15 07:23:38;;;;;;;29.20;27.40;;;15.50;48.40;;;;;;6209314;23;20156;-82
2022/04/15 07:26:04;;;;;;;29.57;27.47;;;15.50;47.40;;;;;;6186656;23;20156;-80
2022/04/15 07:28:30;;;;;;;29.40;27.60;;;15.70;46.60;;;;;;6209703;23;20521;-77
2022/04/15 07:30:55;;;;;;;29.30;27.40;;;15.70;46.70;;;;;;6182180;23;20167;-78
2022/04/15 07:33:21;;;;;;;29.80;27.83;;;15.70;46.60;;;;;;6183078;23;20160;-80
2022/04/15 07:35:46;;;;;;;29.53;27.73;;;15.70;46.60;;;;;;6182716;23;20184;-78
2022/04/15 07:38:12;;;;;;;30.57;28.37;;;15.70;45.30;;;;;;6210006;23;20460;-78
2022/04/15 07:40:38;;;;;;;32.27;30.17;;;15.80;45.40;;;;;;6182003;23;20183;-78
2022/04/15 07:43:03;;;;;;;32.07;29.87;;;15.80;44.10;;;;;;6183373;23;20719;-78
2022/04/15 07:45:29;;;;;;;32.70;30.87;;;15.80;44.90;;;;;;6185392;23;20155;-81
2022/04/15 07:47:55;;;;;;;31.30;29.20;;;15.90;45.30;;;;;;6186844;23;20164;-82
2022/04/15 07:50:25;;;;;;;31.80;29.90;;;15.90;45.00;;;;;;6212557;23;20247;-81
2022/04/15 07:52:56;;;;;;;31.97;29.50;;;16.00;43.80;;;;;;6187122;23;20387;-81
2022/04/15 07:55:21;;;;;;;32.35;30.30;;;16.10;43.90;;;;;;6187384;23;20779;-81
2022/04/15 07:57:48;;;;;;;30.70;28.67;;;16.10;44.20;;;;;;6187792;23;20244;-81
2022/04/15 08:00:14;;;;;;;31.97;29.67;;;16.10;44.80;;;;;;6187234;23;20204;-82
2022/04/15 08:02:40;;;;;;;31.60;29.50;;;16.10;45.20;;;;;;6187391;23;20391;-81
2022/04/15 08:05:06;;;;;;;32.07;29.83;;;16.20;45.10;;;;;;6187509;23;20471;-82
2022/04/15 08:07:31;;;;;;;30.90;28.73;;;16.20;43.50;;;;;;6214205;23;20392;-82
2022/04/15 08:09:57;;;;;;;31.20;28.83;;;16.40;44.20;;;;;;6187202;23;20473;-82
2022/04/15 08:12:22;;;;;;;30.40;28.40;;;16.30;43.80;;;;;;6187504;23;20156;-81
2022/04/15 08:14:48;;;;;;;33.03;30.83;;;16.40;43.00;;;;;;6187148;23;20160;-81
2022/04/15 08:17:14;;;;;;;32.50;30.50;;;16.40;42.50;;;;;;6187155;23;20183;-81
2022/04/15 08:19:40;;;;;;;31.97;30.00;;;16.40;42.40;;;;;;6187258;23;20198;-81
2022/04/15 08:22:09;;;;;;;33.07;30.87;;;16.40;42.10;;;;;;6187497;23;20293;-82
2022/04/15 08:24:39;;;;;;;35.93;33.83;;;16.50;41.50;;;;;;6187152;23;20164;-82
2022/04/15 08:27:05;;;;;;;32.00;29.80;;;16.50;41.50;;;;;;6188221;23;20884;-81
2022/04/15 08:29:30;;;;;;;32.40;30.23;;;16.60;41.90;;;;;;6188487;23;20390;-81
2022/04/15 08:31:56;;;;;;;31.70;29.80;;;16.70;41.40;;;;;;6212960;23;20481;-81
2022/04/15 08:34:22;;;;;;;31.07;29.07;;;16.70;40.70;;;;;;6186709;23;20164;-81
2022/04/15 08:36:47;;;;;;;32.30;30.20;;;16.70;40.70;;;;;;6186305;23;20224;-81
2022/04/15 08:39:13;;;;;;;31.63;29.63;;;16.70;40.50;;;;;;6186959;23;20484;-81
2022/04/15 08:41:42;;;;;;;31.90;29.70;;;16.70;40.40;;;;;;6187054;23;20184;-80
2022/04/15 08:44:08;;;;;;;32.47;30.30;;;16.90;40.10;;;;;;6186865;23;20239;-81
2022/04/15 08:46:35;;;;;;;32.50;30.50;;;17.00;40.20;;;;;;6186918;23;20832;-82
2022/04/15 08:49:02;;;;;;;32.70;29.80;;;17.00;39.80;;;;;;6186702;23;20390;-82
2022/04/15 08:51:29;;;;;;;33.30;30.77;;;17.00;40.30;;;;;;6186936;23;20391;-81
2022/04/15 08:53:56;;;;;;;32.00;29.90;;;17.10;39.70;;;;;;6186553;23;20387;-81
2022/04/15 08:56:22;;;;;;;31.60;29.53;;;17.20;37.80;;;;;;6187652;23;20855;-81
2022/04/15 08:58:48;;;;;;;32.20;29.77;;;17.10;37.70;;;;;;6187565;23;20470;-81
2022/04/15 09:01:14;;;;;;;32.60;30.20;;;17.20;37.80;;;;;;6187518;23;20729;-81
2022/04/15 09:03:42;;;;;;;32.50;30.27;;;17.30;38.00;;;;;;6188045;23;20384;-79
2022/04/15 09:06:17;;;;;;;32.93;30.67;;;17.20;38.50;;;;;;6184885;23;20387;-79
2022/04/15 09:09:01;;;;;;;35.83;33.03;;;17.10;39.00;;;;;;6186429;23;20729;-85
2022/04/15 09:11:35;;;;;;;37.87;35.27;;;17.30;38.50;;;;;;6212643;23;20379;-85
2022/04/15 09:14:07;;;;;;;32.07;29.90;;;17.30;37.90;;;;;;6187728;23;20379;-84
2022/04/15 09:16:37;;;;;;;33.20;31.00;;;17.40;37.10;;;;;;6213621;23;20423;-86
2022/04/15 09:19:06;;;;;;;35.03;32.60;;;17.40;37.00;;;;;;6188032;23;20371;-83
2022/04/15 09:21:31;;;;;;;33.80;31.60;;;17.50;36.40;;;;;;6188449;23;20383;-83
2022/04/15 09:23:58;;;;;;;33.73;31.43;;;17.50;36.70;;;;;;6214338;23;20403;-86
2022/04/15 09:26:25;;;;;;;34.63;32.33;;;17.50;36.50;;;;;;6188772;23;20520;-82
2022/04/15 09:28:53;;;;;;;33.07;30.90;;;17.60;34.20;;;;;;6213572;23;20470;-87
2022/04/15 09:31:23;;;;;;;32.47;30.37;;;17.60;33.30;;;;;;6188224;23;20395;-81
2022/04/15 09:34:00;;;;;;;32.73;30.57;;;17.60;34.40;;;;;;6187448;23;20386;-83
2022/04/15 09:36:27;;;;;;;33.37;31.07;;;17.70;34.30;;;;;;6187378;23;20423;-82
2022/04/15 09:39:14;;;;;;;32.87;30.87;;;17.70;34.40;;;;;;6187747;23;20380;-83
2022/04/15 09:42:03;;;;;;;32.30;30.10;;;17.80;33.30;;;;;;6191314;23;20391;-82
2022/04/15 09:44:33;;;;;;;32.30;30.30;;;17.90;33.10;;;;;;6188426;23;20427;-80
2022/04/15 09:47:04;;;;;;;32.63;30.63;;;17.60;33.60;;;;;;6187937;23;20379;-81
2022/04/15 09:49:34;;;;;;;29.90;28.20;;;17.50;34.60;;;;;;6188956;23;20407;-85
2022/04/15 09:52:00;;;;;;;31.87;29.83;;;17.50;35.30;;;;;;6189168;23;20470;-83
2022/04/15 09:54:34;;;;;;;30.63;28.80;;;17.60;34.40;;;;;;6189246;23;20418;-83
2022/04/15 09:57:01;;;;;;;31.03;29.13;;;17.60;34.40;;;;;;6189001;23;20430;-84
2022/04/15 09:59:28;;;;;;;32.80;30.60;;;17.70;34.20;;;;;;6188654;23;20396;-84
2022/04/15 10:01:56;;;;;;;31.37;29.37;;;17.70;32.90;;;;;;6188788;23;20384;-83
2022/04/15 10:04:26;;;;;;;30.70;28.80;;;17.70;33.20;;;;;;6188918;23;20384;-82
2022/04/15 10:06:52;;;;;;;30.80;28.80;;;17.80;32.70;;;;;;6188664;23;20391;-82
2022/04/15 10:09:19;;;;;;;32.77;30.57;;;17.90;31.30;;;;;;6188924;23;20407;-82
2022/04/15 10:11:58;;;;;;;32.63;29.93;;;17.90;33.00;;;;;;6188489;23;20502;-85
2022/04/15 10:14:24;;;;;;;32.00;30.10;;;17.70;33.80;;;;;;6189397;23;20387;-84
2022/04/15 10:16:49;;;;;;;30.53;28.60;;;17.80;33.40;;;;;;6189239;23;20453;-82
2022/04/15 10:20:06;;;;;;;29.10;27.40;;;17.80;32.20;;;;;;6189310;23;20363;-83
2022/04/15 10:22:43;;;;;;;30.00;27.60;;;17.90;33.20;;;;;;6214600;23;20375;-84
2022/04/15 10:25:18;;;;;;;29.60;27.80;;;18.10;32.00;;;;;;6216122;23;20362;-84
2022/04/15 10:27:46;;;;;;;31.60;29.50;;;18.10;33.80;;;;;;6209511;23;20464;-85
2022/04/15 10:30:21;;;;;;;30.73;28.80;;;18.20;33.30;;;;;;6244705;23;20379;-85
2022/04/15 10:32:55;;;;;;;31.40;29.40;;;18.20;33.30;;;;;;6219205;23;20397;-84
2022/04/15 10:35:27;;;;;;;32.77;30.47;;;18.10;34.50;;;;;;6218846;23;20386;-85
2022/04/15 10:37:56;;;;;;;29.20;27.47;;;18.00;34.80;;;;;;6218919;23;20397;-84
2022/04/15 10:40:32;;;;;;;30.73;28.73;;;18.00;35.40;;;;;;6218796;23;20393;-84
2022/04/15 10:43:16;;;;;;;29.97;28.07;;;18.00;34.20;;;;;;6218817;23;20473;-84
2022/04/15 10:45:41;;;;;;;31.00;29.00;;;18.00;34.40;;;;;;6218504;23;20789;-83
2022/04/15 10:48:07;;;;;;;27.93;26.03;;;18.00;33.30;;;;;;6217742;23;20440;-83
2022/04/15 10:50:34;;;;;;;28.33;26.47;;;18.20;32.40;;;;;;6244223;23;20151;-83
2022/04/15 10:53:16;;;;;;;28.83;27.07;;;18.50;30.30;;;;;;6217838;23;20159;-82
2022/04/15 10:55:52;;;;;;;29.07;27.20;;;18.50;29.40;;;;;;6217505;23;20426;-83
2022/04/15 10:58:18;;;;;;;29.33;27.53;;;18.30;30.40;;;;;;6218836;23;20373;-83
2022/04/15 11:03:29;;;;;;;30.00;28.10;;;18.10;31.80;;;;;;6247664;22;20453;-82
2022/04/15 11:06:00;;;;;;;28.83;27.13;;;18.10;32.20;;;;;;6220592;23;20378;-83
2022/04/15 11:08:58;;;;;;;28.97;27.30;;;18.10;31.70;;;;;;6220549;23;20397;-82
2022/04/15 11:11:36;;;;;;;26.00;24.50;;;18.10;31.40;;;;;;6200352;23;20398;-81
2022/04/15 11:14:04;;;;;;;27.50;26.00;;;18.20;31.10;;;;;;6220379;23;20385;-82
2022/04/15 11:16:43;;;;;;;29.60;27.90;;;18.30;30.60;;;;;;6220086;23;20429;-81
2022/04/15 11:19:13;;;;;;;28.77;27.03;;;18.30;30.00;;;;;;6220162;23;20536;-81
2022/04/15 11:21:40;;;;;;;28.13;26.50;;;18.30;30.00;;;;;;6220351;23;20374;-81
2022/04/15 11:24:08;;;;;;;29.50;27.80;;;18.40;31.00;;;;;;6219923;23;20402;-81
2022/04/15 11:26:39;;;;;;;27.30;25.57;;;18.80;29.10;;;;;;6220090;23;20393;-81
2022/04/15 11:29:07;;;;;;;27.40;25.70;;;18.70;29.10;;;;;;6220374;23;20409;-81
2022/04/15 11:31:38;;;;;;;30.53;28.43;;;18.70;30.00;;;;;;6220419;23;20772;-81
2022/04/15 11:34:07;;;;;;;27.00;25.30;;;18.70;29.10;;;;;;6220048;23;20394;-81
2022/04/15 11:36:35;;;;;;;29.23;27.33;;;18.70;29.10;;;;;;6220128;23;20524;-81
2022/04/15 11:39:03;;;;;;;29.47;27.77;;;18.60;30.00;;;;;;6221011;23;20393;-81
2022/04/15 11:41:28;;;;;;;28.33;26.80;;;18.30;30.40;;;;;;6220238;23;20382;-82
2022/04/15 11:44:14;;;;;;;28.23;26.53;;;18.30;31.10;;;;;;6219286;23;20389;-82
2022/04/15 11:46:42;;;;;;;27.57;26.03;;;18.40;30.90;;;;;;6246409;23;20466;-82
2022/04/15 11:49:26;;;;;;;26.83;25.10;;;18.40;31.10;;;;;;6219374;23;20697;-81
2022/04/15 11:51:54;;;;;;;27.70;25.80;;;18.50;31.50;;;;;;6219411;23;20386;-82
2022/04/15 11:54:38;;;;;;;29.00;27.20;;;18.60;30.10;;;;;;6246182;23;20388;-82
2022/04/15 11:57:05;;;;;;;26.90;25.30;;;18.60;29.60;;;;;;6219068;23;20422;-82
2022/04/15 11:59:38;;;;;;;28.77;27.17;;;18.60;29.60;;;;;;6219431;23;20393;-82
2022/04/15 12:02:04;;;;;;;25.43;23.83;;;18.70;29.60;;;;;;6219740;23;20387;-80
2022/04/15 12:04:30;;;;;;;27.30;25.80;;;18.70;29.10;;;;;;6219429;23;20481;-81
2022/04/15 12:06:55;;;;;;;26.50;25.10;;;18.80;28.90;;;;;;6246390;23;20175;-81
2022/04/15 12:09:24;;;;;;;26.97;25.43;;;19.00;28.60;;;;;;6219786;23;20156;-81
2022/04/15 12:11:51;;;;;;;24.60;23.40;;;19.10;28.00;;;;;;6219209;23;20151;-81
2022/04/15 12:14:18;;;;;;;26.80;25.13;;;19.30;27.70;;;;;;6219957;23;20929;-80
2022/04/15 12:16:44;;;;;;;28.03;26.33;;;19.30;27.20;;;;;;6219466;23;20917;-81
2022/04/15 12:19:10;;;;;;;26.40;24.90;;;19.20;27.80;;;;;;6219430;23;20385;-81
2022/04/15 12:21:36;;;;;;;28.27;26.60;;;19.20;27.50;;;;;;6219228;23;20386;-82
2022/04/15 12:24:25;;;;;;;29.23;27.33;;;19.00;27.50;;;;;;6219479;23;20226;-82
2022/04/15 12:26:54;;;;;;;27.73;26.03;;;18.90;27.30;;;;;;6219101;23;20393;-81
2022/04/15 12:32:17;;;;;;;26.03;24.43;;;18.70;28.10;;;;;;6246380;23;20374;-82
2022/04/15 12:34:47;;;;;;;27.00;25.30;;;18.70;27.50;;;;;;6219361;23;20854;-82
2022/04/15 12:37:37;;;;;;;26.43;24.40;;;18.70;26.50;;;;;;6219233;23;20478;-83
2022/04/15 12:40:12;;;;;;;24.90;23.37;;;18.60;28.00;;;;;;6219390;23;20883;-83